Time;durP1;ratioP1;P1;durP2;ratioP2;P2;SDS_P1;SDS_P2;PMS_P1;PMS_P2;Temp;Humidity;BMP_temperature;BMP_pressure;BME280_temperature;BME280_humidity;BME280_pressure;Samples;Min_cycle;Max_cycle;Signal;HPM_P1;HPM_P2
2023/10/08 00:02:52;;;;;;;8.82;4.55;;;;;;;17.78;90.20;100524.69;12188262;19;20030;-79
2023/10/08 00:06:58;;;;;;;7.78;3.70;;;;;;;17.73;90.78;100517.16;12190784;19;19999;-79
2023/10/08 00:11:07;;;;;;;9.32;3.50;;;;;;;17.70;90.84;100512.13;12161406;19;20014;-78
2023/10/08 00:15:10;;;;;;;7.80;3.63;;;;;;;17.76;90.52;100526.91;12183656;19;20089;-78
2023/10/08 00:19:15;;;;;;;8.48;3.50;;;;;;;17.74;91.14;100524.38;12160717;19;20037;-79
2023/10/08 00:23:17;;;;;;;9.27;4.00;;;;;;;17.75;91.11;100530.78;12189688;19;20168;-79
2023/10/08 00:27:21;;;;;;;9.18;3.75;;;;;;;17.73;91.84;100525.50;12189161;19;20007;-77
2023/10/08 00:31:29;;;;;;;9.50;4.32;;;;;;;17.74;91.72;100524.38;12163506;19;20019;-78
2023/10/08 00:35:37;;;;;;;8.77;3.83;;;;;;;17.72;92.46;100532.19;12185138;19;20419;-78
2023/10/08 00:39:41;;;;;;;6.35;3.65;;;;;;;17.73;92.64;100533.88;12181568;19;20077;-78
2023/10/08 00:43:45;;;;;;;8.23;3.88;;;;;;;17.74;92.64;100523.56;12154497;19;20098;-79
2023/10/08 00:47:47;;;;;;;10.85;3.25;;;;;;;17.75;92.43;100522.41;12175545;19;20011;-78
2023/10/08 00:52:29;;;;;;;7.40;3.58;;;;;;;17.72;92.76;100515.44;12171669;19;20035;-78
2023/10/08 00:56:25;;;;;;;8.93;4.28;;;;;;;17.71;93.04;100513.78;12173844;19;20022;-78
2023/10/08 01:00:37;;;;;;;10.30;4.05;;;;;;;17.70;93.10;100514.91;12196405;19;20011;-78
2023/10/08 01:04:43;;;;;;;8.70;3.80;;;;;;;17.73;92.57;100519.94;12156453;19;20067;-81
2023/10/08 01:08:52;;;;;;;8.50;3.25;;;;;;;17.67;93.09;100504.34;12183257;19;20659;-77
2023/10/08 01:13:05;;;;;;;9.18;4.40;;;;;;;17.64;93.43;100496.53;12175211;19;20007;-78
2023/10/08 01:17:07;;;;;;;10.68;3.70;;;;;;;17.63;93.71;100494.00;12154621;19;20011;-78
2023/10/08 01:21:34;;;;;;;;;;;;;;;17.59;93.81;100493.75;12170765;19;20021;-77
2023/10/08 01:25:31;;;;;;;9.73;3.80;;;;;;;17.57;94.23;100495.13;12156090;19;19915;-78
2023/10/08 01:29:33;;;;;;;5.97;3.33;;;;;;;17.55;94.29;100487.06;12185283;19;20059;-78
2023/10/08 01:33:38;;;;;;;11.07;4.07;;;;;;;17.50;95.72;100476.75;12185587;19;20007;-79
2023/10/08 01:37:41;;;;;;;9.40;3.65;;;;;;;17.52;95.49;100487.63;12165502;19;20508;-78
2023/10/08 01:41:51;;;;;;;7.78;4.10;;;;;;;17.52;95.84;100494.03;12188951;19;20019;-79
2023/10/08 01:45:54;;;;;;;10.20;3.72;;;;;;;17.51;96.41;100483.16;12193156;19;20673;-78
2023/10/08 01:50:05;;;;;;;11.55;3.60;;;;;;;17.48;97.26;100481.75;12162763;19;20392;-78
2023/10/08 01:54:10;;;;;;;11.20;4.30;;;;;;;17.51;96.74;100475.63;12187602;19;20370;-78
2023/10/08 01:58:14;;;;;;;7.80;3.20;;;;;;;17.56;96.22;100499.03;12166077;19;20014;-78
2023/10/08 02:02:16;;;;;;;7.25;3.75;;;;;;;17.53;96.71;100494.88;12187208;19;20038;-79
2023/10/08 02:06:20;;;;;;;9.23;3.85;;;;;;;17.46;97.28;100499.88;12188306;19;20363;-77
2023/10/08 02:10:25;;;;;;;10.82;3.88;;;;;;;17.31;99.05;100509.91;12192350;19;20007;-78
2023/10/08 02:14:31;;;;;;;7.07;3.88;;;;;;;17.24;100.00;100519.63;12144854;19;20014;-78
2023/10/08 02:18:35;;;;;;;12.20;4.10;;;;;;;17.13;100.00;100517.94;12183123;19;20011;-78
2023/10/08 02:22:38;;;;;;;;;;;;;;;17.04;100.00;100526.00;12156827;19;20010;-78
2023/10/08 02:26:42;;;;;;;8.55;3.88;;;;;;;17.01;100.00;100532.13;12186074;19;19914;-78
2023/10/08 02:30:44;;;;;;;11.30;4.60;;;;;;;16.99;100.00;100524.06;12187259;19;20289;-79
2023/10/08 02:34:46;;;;;;;8.88;4.00;;;;;;;17.00;100.00;100520.16;12174825;19;20002;-78
2023/10/08 02:38:47;;;;;;;8.50;4.17;;;;;;;16.98;100.00;100515.97;12190174;19;20033;-78
2023/10/08 02:42:49;;;;;;;8.32;4.00;;;;;;;16.95;100.00;100510.97;12198001;19;20014;-79
2023/10/08 02:46:53;;;;;;;8.25;4.15;;;;;;;16.92;100.00;100497.59;12209214;19;20006;-80
2023/10/08 02:50:55;;;;;;;7.65;3.58;;;;;;;16.92;100.00;100492.03;12226690;19;20007;-78
2023/10/08 02:54:57;;;;;;;7.57;3.75;;;;;;;16.87;100.00;100498.44;12213962;19;20801;-79
2023/10/08 02:59:00;;;;;;;8.80;3.80;;;;;;;16.83;100.00;100497.28;12185215;19;20007;-79
2023/10/08 03:03:09;;;;;;;;;;;;;;;16.75;100.00;100492.25;12214067;19;20465;-78
2023/10/08 03:07:21;;;;;;;10.52;3.70;;;;;;;16.69;100.00;100483.06;12199807;19;19907;-79
2023/10/08 03:11:26;;;;;;;11.23;4.30;;;;;;;16.60;100.00;100481.91;12163308;19;20002;-78
2023/10/08 03:15:28;;;;;;;;;;;;;;;16.55;100.00;100490.22;12181813;19;20011;-78
2023/10/08 03:19:31;;;;;;;;;;;;;;;16.50;100.00;100495.78;12158243;19;19942;-79
2023/10/08 03:23:34;;;;;;;8.50;3.67;;;;;;;16.45;100.00;100501.31;12180131;19;19915;-78
2023/10/08 03:27:41;;;;;;;9.27;4.32;;;;;;;16.43;100.00;100518.28;12184990;19;20041;-78
2023/10/08 03:31:54;;;;;;;8.85;3.95;;;;;;;16.44;100.00;100513.56;12161514;19;20015;-79
2023/10/08 03:35:56;;;;;;;9.52;3.88;;;;;;;16.41;100.00;100507.41;12178953;19;20090;-79
2023/10/08 03:40:07;;;;;;;8.80;3.60;;;;;;;16.38;100.00;100521.03;12183620;19;20026;-79
2023/10/08 03:44:13;;;;;;;9.70;4.13;;;;;;;16.39;100.00;100528.28;12162739;19;20032;-79
2023/10/08 03:48:18;;;;;;;9.32;3.88;;;;;;;16.33;100.00;100538.56;12180626;19;20058;-78
2023/10/08 03:52:25;;;;;;;9.68;3.80;;;;;;;16.34;100.00;100553.28;12163310;19;20006;-78
2023/10/08 03:56:31;;;;;;;8.35;4.15;;;;;;;16.27;100.00;100553.53;12173738;19;20007;-79
2023/10/08 04:00:41;;;;;;;7.45;3.75;;;;;;;16.25;100.00;100552.13;12179307;19;19998;-78
2023/10/08 04:04:59;;;;;;;9.50;4.57;;;;;;;16.15;100.00;100559.31;12161068;19;20006;-78
2023/10/08 04:13:45;;;;;;;9.35;3.83;;;;;;;16.07;100.00;100553.41;12162360;19;20030;-79
2023/10/08 04:17:50;;;;;;;7.75;4.00;;;;;;;16.06;100.00;100551.72;12179734;19;20042;-78
2023/10/08 04:21:54;;;;;;;13.05;5.38;;;;;;;16.04;100.00;100557.56;12176538;19;20002;-78
2023/10/08 04:25:57;;;;;;;7.90;3.83;;;;;;;16.02;100.00;100547.81;12151491;19;20006;-78
2023/10/08 04:30:01;;;;;;;11.35;4.20;;;;;;;16.03;100.00;100543.91;12175663;19;21233;-77
2023/10/08 04:34:15;;;;;;;10.37;4.23;;;;;;;16.06;100.00;100535.03;12176564;19;20015;-78
2023/10/08 04:38:25;;;;;;;9.85;4.07;;;;;;;16.06;100.00;100540.59;12156888;19;20002;-78
2023/10/08 04:42:27;;;;;;;7.63;3.70;;;;;;;16.07;100.00;100523.66;12176601;19;20007;-78
2023/10/08 04:46:46;;;;;;;10.40;4.10;;;;;;;16.08;100.00;100513.38;12157793;19;20003;-78
2023/10/08 04:50:58;;;;;;;9.00;5.05;;;;;;;16.12;100.00;100507.03;12182497;19;20003;-78
2023/10/08 04:55:12;;;;;;;7.63;4.32;;;;;;;16.17;100.00;100506.19;12181464;19;20027;-78
2023/10/08 04:59:21;;;;;;;7.38;3.60;;;;;;;16.21;100.00;100517.59;12159913;19;21178;-79
2023/10/08 05:03:32;;;;;;;10.95;4.70;;;;;;;16.21;100.00;100509.28;12196851;19;20158;-78
2023/10/08 05:16:19;;;;;;;9.82;4.55;;;;;;;16.20;100.00;100540.97;12191264;19;21399;-78
2023/10/08 05:25:08;;;;;;;9.68;4.05;;;;;;;16.17;100.00;100545.13;12187046;19;20023;-77
2023/10/08 05:29:29;;;;;;;9.27;4.00;;;;;;;16.17;100.00;100545.97;12170920;19;20010;-77
2023/10/08 05:33:59;;;;;;;7.90;3.65;;;;;;;16.17;100.00;100547.91;12188358;19;20010;-78
2023/10/08 05:38:13;;;;;;;9.50;4.13;;;;;;;16.16;100.00;100551.81;12167063;19;20027;-78
2023/10/08 05:42:16;;;;;;;9.13;4.20;;;;;;;16.17;100.00;100547.91;12185307;19;20010;-77
2023/10/08 05:50:39;;;;;;;9.75;4.38;;;;;;;16.14;100.00;100528.97;12164299;19;20126;-78
2023/10/08 05:55:10;;;;;;;10.05;4.15;;;;;;;16.18;100.00;100518.97;12193021;19;20489;-78
2023/10/08 05:59:18;;;;;;;9.40;3.70;;;;;;;16.21;100.00;100515.69;12161123;19;21765;-78
2023/10/08 06:03:32;;;;;;;7.47;4.20;;;;;;;16.17;100.00;100515.38;12188375;19;20853;-78
2023/10/08 06:12:09;;;;;;;12.05;4.10;;;;;;;16.27;100.00;100503.47;12164291;19;20002;-78
2023/10/08 06:16:30;;;;;;;8.20;4.00;;;;;;;16.28;100.00;100513.50;12181894;19;21158;-77
2023/10/08 06:20:34;;;;;;;8.73;4.47;;;;;;;16.34;100.00;100509.63;12161531;19;20039;-78
2023/10/08 06:24:38;;;;;;;10.02;4.10;;;;;;;16.36;100.00;100529.66;12182282;19;20024;-79
2023/10/08 06:28:43;;;;;;;5.80;3.45;;;;;;;16.44;100.00;100556.09;12167185;19;20082;-77
2023/10/08 06:32:47;;;;;;;9.95;3.80;;;;;;;16.48;100.00;100573.94;12177620;19;20011;-78
2023/10/08 06:36:54;;;;;;;9.60;4.70;;;;;;;16.49;100.00;100600.66;12181673;19;20006;-78
2023/10/08 06:45:30;;;;;;;10.40;4.00;;;;;;;16.52;100.00;100624.31;12182593;19;20012;-78
2023/10/08 06:49:33;;;;;;;9.25;3.83;;;;;;;16.55;100.00;100632.97;12184556;19;20015;-79
2023/10/08 06:53:38;;;;;;;14.70;4.43;;;;;;;16.57;100.00;100619.63;12165400;19;20361;-78
2023/10/08 06:57:42;;;;;;;9.88;4.30;;;;;;;16.66;100.00;100621.88;12185223;19;20477;-78
2023/10/08 07:01:46;;;;;;;9.77;4.80;;;;;;;16.83;100.00;100633.69;12165091;19;20003;-79
2023/10/08 07:05:59;;;;;;;7.35;4.03;;;;;;;16.99;100.00;100629.88;12189065;19;20011;-78
2023/10/08 07:10:02;;;;;;;10.07;4.43;;;;;;;17.13;100.00;100629.34;12194541;19;20027;-78
2023/10/08 07:14:04;;;;;;;9.57;4.03;;;;;;;17.24;100.00;100640.25;12162669;19;20094;-78
2023/10/08 07:18:09;;;;;;;10.00;4.60;;;;;;;17.33;100.00;100631.34;12184812;19;20024;-78
2023/10/08 07:22:28;;;;;;;9.43;3.95;;;;;;;17.39;100.00;100633.88;12189443;19;20418;-78
2023/10/08 07:26:36;;;;;;;8.23;3.92;;;;;;;17.50;100.00;100637.53;12166739;19;20002;-79
2023/10/08 07:30:43;;;;;;;11.85;4.05;;;;;;;17.57;100.00;100635.28;12186005;19;20007;-78
2023/10/08 07:34:45;;;;;;;11.75;4.07;;;;;;;17.70;100.00;100659.03;12161493;19;20011;-78
2023/10/08 07:38:47;;;;;;;11.48;4.45;;;;;;;17.82;100.00;100669.91;12185168;19;20029;-77
2023/10/08 07:42:51;;;;;;;8.65;4.47;;;;;;;17.98;100.00;100671.63;12186278;19;20007;-78
2023/10/08 07:46:57;;;;;;;9.68;4.53;;;;;;;18.08;100.00;100666.03;12158072;19;20025;-78
2023/10/08 07:50:59;;;;;;;10.75;3.95;;;;;;;18.17;100.00;100664.38;12184378;19;20010;-78
2023/10/08 07:55:04;;;;;;;13.68;4.18;;;;;;;18.18;100.00;100662.41;12190307;19;20018;-77
2023/10/08 07:59:08;;;;;;;9.98;4.88;;;;;;;18.16;100.00;100661.84;12167445;19;20440;-78
2023/10/08 08:03:11;;;;;;;9.30;5.00;;;;;;;18.18;100.00;100660.47;12183621;19;20078;-78
2023/10/08 08:07:15;;;;;;;8.45;4.68;;;;;;;18.30;100.00;100665.75;12190653;19;20041;-78
2023/10/08 08:11:18;;;;;;;10.25;4.57;;;;;;;18.44;100.00;100669.66;12183997;19;20355;-77
2023/10/08 08:15:21;;;;;;;7.93;5.18;;;;;;;18.53;97.73;100672.69;12196520;19;20002;-78
2023/10/08 08:19:24;;;;;;;7.43;3.95;;;;;;;18.49;97.37;100660.41;12200823;19;20012;-77
2023/10/08 08:23:26;;;;;;;9.52;4.10;;;;;;;18.53;97.93;100643.94;12179826;19;20010;-77
2023/10/08 08:27:34;;;;;;;12.70;4.70;;;;;;;18.67;98.34;100650.59;12203834;19;20011;-78
2023/10/08 08:31:36;;;;;;;8.30;3.92;;;;;;;18.83;97.01;100652.28;12203398;19;20748;-79
2023/10/08 08:35:39;;;;;;;8.50;4.07;;;;;;;18.86;94.69;100650.88;12182733;19;20014;-77
2023/10/08 08:39:43;;;;;;;11.45;4.00;;;;;;;19.00;94.26;100651.91;12221441;19;20022;-78
2023/10/08 08:43:49;;;;;;;9.57;4.37;;;;;;;19.27;93.48;100653.47;12182383;19;20471;-78
2023/10/08 08:47:51;;;;;;;9.25;5.07;;;;;;;19.24;90.20;100663.25;12210701;19;20017;-77
2023/10/08 08:51:56;;;;;;;8.95;4.18;;;;;;;19.24;90.93;100670.81;12202095;19;20395;-79
2023/10/08 08:56:00;;;;;;;8.30;5.32;;;;;;;19.22;91.89;100684.25;12178407;19;20740;-79
2023/10/08 09:00:08;;;;;;;10.15;4.72;;;;;;;19.21;91.69;100688.13;12198697;19;20018;-79
2023/10/08 09:04:16;;;;;;;11.00;4.95;;;;;;;19.19;91.61;100685.66;12201752;19;20096;-79
2023/10/08 09:08:18;;;;;;;6.85;3.47;;;;;;;19.29;91.08;100679.16;12184643;19;20015;-79
2023/10/08 09:12:21;;;;;;;11.77;4.40;;;;;;;19.39;90.22;100673.50;12202721;19;20018;-78
2023/10/08 09:16:24;;;;;;;8.32;4.60;;;;;;;19.44;88.79;100667.06;12196436;19;20014;-79
2023/10/08 09:20:27;;;;;;;12.33;4.17;;;;;;;19.63;88.72;100665.28;12179709;19;20002;-78
2023/10/08 09:24:33;;;;;;;9.02;4.82;;;;;;;19.84;86.12;100673.53;12197874;19;20543;-79
2023/10/08 09:28:38;;;;;;;10.63;3.90;;;;;;;20.12;85.86;100697.13;12199025;19;19999;-79
2023/10/08 09:32:42;;;;;;;8.43;4.00;;;;;;;20.36;84.91;100700.84;12176572;19;20015;-78
2023/10/08 09:36:44;;;;;;;11.32;4.90;;;;;;;20.30;84.51;100704.81;12198738;19;20014;-79
2023/10/08 09:40:46;;;;;;;14.20;4.37;;;;;;;20.31;84.74;100703.66;12176101;19;20431;-78
2023/10/08 09:44:48;;;;;;;8.80;4.63;;;;;;;20.27;84.80;100697.00;12198315;19;20599;-79
2023/10/08 09:48:55;;;;;;;11.20;4.55;;;;;;;20.22;83.47;100714.66;12207365;19;20359;-79
2023/10/08 09:53:10;;;;;;;8.00;4.20;;;;;;;20.38;82.64;100694.94;12190440;19;20094;-80
2023/10/08 09:57:13;;;;;;;9.77;4.78;;;;;;;20.61;81.74;100684.94;12207894;19;20034;-79
2023/10/08 10:01:18;;;;;;;8.50;4.15;;;;;;;20.80;81.37;100694.28;12210542;19;20031;-79
2023/10/08 10:05:21;;;;;;;8.13;4.53;;;;;;;20.79;79.37;100698.22;12185467;19;20010;-79
2023/10/08 10:09:24;;;;;;;9.55;4.45;;;;;;;20.76;78.88;100697.94;12205499;19;20011;-79
2023/10/08 10:13:34;;;;;;;11.70;5.03;;;;;;;20.76;79.26;100698.78;12208162;19;21868;-80
2023/10/08 10:17:36;;;;;;;10.70;4.70;;;;;;;20.78;79.32;100695.69;12188796;19;20015;-79
2023/10/08 10:21:41;;;;;;;8.15;4.75;;;;;;;20.85;80.55;100690.56;12209940;19;20024;-79
2023/10/08 10:25:44;;;;;;;9.63;4.65;;;;;;;20.94;80.08;100678.44;12190648;19;20007;-79
2023/10/08 10:29:48;;;;;;;8.80;5.10;;;;;;;20.99;78.59;100669.09;12208438;19;20505;-79
2023/10/08 10:33:50;;;;;;;9.60;4.30;;;;;;;21.17;79.16;100673.09;12208574;19;20022;-78
2023/10/08 10:37:52;;;;;;;;;;;;;;;21.57;78.03;100684.94;12190249;19;20010;-78
2023/10/08 10:42:01;;;;;;;13.02;5.97;;;;;;;21.98;76.90;100673.94;12209249;19;19910;-78
2023/10/08 10:46:24;;;;;;;9.40;4.78;;;;;;;22.25;73.51;100678.84;12208923;19;20086;-79
2023/10/08 10:50:31;;;;;;;12.63;4.53;;;;;;;22.33;73.13;100677.28;12188170;19;20450;-79
2023/10/08 10:54:36;;;;;;;6.90;4.00;;;;;;;22.50;72.44;100699.19;12227542;19;20021;-78
2023/10/08 10:58:40;;;;;;;8.88;4.15;;;;;;;22.54;73.51;100697.41;12231575;19;20013;-78
2023/10/08 11:02:48;;;;;;;6.28;4.22;;;;;;;22.74;70.56;100699.03;12201681;19;20023;-79
2023/10/08 11:06:53;;;;;;;11.88;5.32;;;;;;;23.02;70.15;100699.91;12215891;19;20076;-79
2023/10/08 11:10:58;;;;;;;10.68;4.25;;;;;;;23.11;68.35;100706.47;12190678;19;20007;-79
2023/10/08 11:15:05;;;;;;;9.93;4.13;;;;;;;23.12;68.70;100708.13;12213930;19;20016;-78
2023/10/08 11:19:08;;;;;;;9.13;4.75;;;;;;;23.25;68.91;100708.44;12213249;19;20033;-78
2023/10/08 11:23:32;;;;;;;8.85;4.38;;;;;;;23.40;67.67;100708.13;12192381;19;20026;-79
2023/10/08 11:27:38;;;;;;;11.05;5.10;;;;;;;23.15;67.68;100721.56;12213195;19;20031;-79
2023/10/08 11:31:41;;;;;;;11.60;4.70;;;;;;;23.25;69.17;100719.69;12196064;19;20003;-78
2023/10/08 11:36:00;;;;;;;9.57;4.85;;;;;;;23.68;66.01;100725.81;12211414;19;20374;-80
2023/10/08 11:40:17;;;;;;;9.50;4.97;;;;;;;23.55;65.76;100724.66;12210262;19;20701;-79
2023/10/08 11:44:19;;;;;;;13.15;5.20;;;;;;;23.43;66.30;100718.72;12186826;19;20006;-78
2023/10/08 11:48:28;;;;;;;8.95;4.65;;;;;;;23.22;66.91;100714.69;12204466;19;20015;-80
2023/10/08 11:52:31;;;;;;;9.38;5.00;;;;;;;23.17;67.15;100693.13;12213428;19;20038;-78
2023/10/08 11:56:36;;;;;;;13.30;5.47;;;;;;;23.01;68.32;100692.63;12189669;19;20658;-78
2023/10/08 12:00:44;;;;;;;10.10;5.20;;;;;;;22.97;68.75;100683.97;12209602;19;20019;-79
2023/10/08 12:04:47;;;;;;;10.52;5.60;;;;;;;23.07;68.95;100682.94;12189729;19;20473;-79
2023/10/08 12:08:53;;;;;;;11.65;5.30;;;;;;;23.24;67.89;100668.25;12209534;19;20003;-79
2023/10/08 12:12:55;;;;;;;10.65;4.88;;;;;;;23.90;65.08;100657.47;12208092;19;20009;-79
2023/10/08 12:17:00;;;;;;;10.65;4.57;;;;;;;24.74;61.92;100658.69;12183993;19;20007;-79
2023/10/08 12:21:02;;;;;;;9.45;5.30;;;;;;;25.40;59.72;100662.44;12205693;19;20018;-79
2023/10/08 12:25:07;;;;;;;9.40;4.95;;;;;;;25.49;60.07;100661.59;12207030;19;20011;-78
2023/10/08 12:29:09;;;;;;;10.18;4.70;;;;;;;25.98;58.38;100660.34;12185453;19;20019;-78
2023/10/08 12:33:15;;;;;;;10.88;5.13;;;;;;;26.80;55.14;100658.38;12202644;19;20006;-78
2023/10/08 12:37:18;;;;;;;8.75;4.82;;;;;;;27.36;52.13;100663.09;12205793;19;20029;-79
2023/10/08 12:41:20;;;;;;;10.63;4.90;;;;;;;27.81;50.48;100656.78;12180487;19;20080;-79
2023/10/08 12:45:22;;;;;;;8.45;4.45;;;;;;;27.74;50.63;100654.47;12204155;19;20006;-79
2023/10/08 12:49:27;;;;;;;9.90;4.82;;;;;;;27.47;49.72;100653.03;12206119;19;20010;-79
2023/10/08 12:53:39;;;;;;;8.32;5.22;;;;;;;27.39;49.27;100653.91;12179939;19;20134;-79
2023/10/08 12:57:45;;;;;;;8.82;4.82;;;;;;;27.41;49.17;100654.41;12202483;19;20516;-79
2023/10/08 13:01:53;;;;;;;10.68;5.00;;;;;;;27.11;49.93;100650.72;12180708;19;20011;-79
2023/10/08 13:06:03;;;;;;;11.20;4.80;;;;;;;26.71;51.54;100651.91;12203414;19;21556;-78
2023/10/08 13:10:06;;;;;;;9.88;4.97;;;;;;;26.14;52.40;100638.06;12204357;19;20015;-79
2023/10/08 13:14:08;;;;;;;10.43;4.82;;;;;;;25.83;53.10;100646.72;12180769;19;20010;-79
2023/10/08 13:18:10;;;;;;;8.75;4.65;;;;;;;25.54;54.86;100627.59;12203524;19;20015;-78
2023/10/08 13:22:19;;;;;;;9.90;4.35;;;;;;;25.22;56.13;100621.22;12209078;19;20038;-78
2023/10/08 13:26:24;;;;;;;9.90;4.30;;;;;;;25.11;56.79;100631.16;12192113;19;20090;-80
2023/10/08 13:30:27;;;;;;;10.57;5.00;;;;;;;24.90;56.83;100628.94;12216591;19;20030;-79
2023/10/08 13:34:29;;;;;;;10.90;4.90;;;;;;;24.58;58.22;100627.31;12200395;19;20037;-78
2023/10/08 13:38:31;;;;;;;9.80;4.60;;;;;;;24.28;59.42;100621.31;12187442;19;20058;-78
2023/10/08 13:42:33;;;;;;;11.95;4.65;;;;;;;24.00;61.16;100614.16;12210647;19;20045;-78
2023/10/08 13:46:42;;;;;;;14.27;5.30;;;;;;;23.89;61.02;100607.97;12215243;19;20363;-78
2023/10/08 13:50:44;;;;;;;11.52;4.85;;;;;;;23.90;62.17;100608.81;12192157;19;19998;-79
2023/10/08 13:54:51;;;;;;;12.98;4.68;;;;;;;23.88;61.74;100611.94;12212601;19;20025;-78
2023/10/08 13:59:03;;;;;;;10.15;4.85;;;;;;;23.84;61.91;100611.75;12192498;19;20649;-77
2023/10/08 14:03:07;;;;;;;10.57;4.25;;;;;;;23.82;62.38;100610.41;12209420;19;20006;-79
2023/10/08 14:07:11;;;;;;;9.07;4.85;;;;;;;23.96;62.03;100619.63;12212481;19;20461;-78
2023/10/08 14:11:14;;;;;;;9.93;4.25;;;;;;;23.88;61.92;100618.41;12188971;19;20022;-79
2023/10/08 14:15:17;;;;;;;10.90;4.80;;;;;;;23.83;62.86;100606.44;12212999;19;20013;-78
2023/10/08 14:19:28;;;;;;;9.15;4.78;;;;;;;23.90;63.89;100606.00;12213971;19;20377;-78
2023/10/08 14:23:32;;;;;;;10.40;5.60;;;;;;;23.93;64.65;100611.81;12191436;19;20015;-78
2023/10/08 14:27:39;;;;;;;12.10;4.60;;;;;;;23.84;65.23;100603.31;12215346;19;20047;-79
2023/10/08 14:31:44;;;;;;;9.88;5.10;;;;;;;23.73;65.73;100596.25;12196616;19;20485;-79
2023/10/08 14:44:29;;;;;;;11.20;4.43;;;;;;;23.42;66.71;100559.56;12190331;19;20010;-78
2023/10/08 14:48:35;;;;;;;11.52;4.40;;;;;;;23.45;66.47;100580.63;12211714;19;20010;-79
2023/10/08 14:52:37;;;;;;;9.75;4.18;;;;;;;23.54;67.59;100599.22;12215027;19;20636;-79
2023/10/08 14:56:39;;;;;;;10.33;4.77;;;;;;;23.63;67.31;100597.31;12188757;19;20023;-79
2023/10/08 15:00:41;;;;;;;9.13;4.90;;;;;;;23.77;65.29;100583.22;12211872;19;20637;-78
2023/10/08 15:04:44;;;;;;;9.65;4.70;;;;;;;23.94;65.14;100548.72;12190305;19;20041;-78
2023/10/08 15:08:46;;;;;;;11.15;4.75;;;;;;;24.06;64.24;100553.75;12214708;19;20011;-80
2023/10/08 15:12:51;;;;;;;8.90;4.68;;;;;;;24.02;64.54;100545.13;12211077;19;20027;-80
2023/10/08 15:16:55;;;;;;;8.95;4.30;;;;;;;23.90;65.82;100550.53;12189230;19;20493;-79
2023/10/08 15:20:57;;;;;;;7.93;4.78;;;;;;;23.85;66.17;100561.91;12210328;19;20026;-79
2023/10/08 15:24:59;;;;;;;10.05;4.82;;;;;;;23.81;65.62;100550.47;12212588;19;20010;-78
2023/10/08 15:29:02;;;;;;;9.68;4.30;;;;;;;23.81;67.81;100529.94;12189929;19;20016;-78
2023/10/08 15:33:05;;;;;;;9.95;4.93;;;;;;;23.74;69.42;100560.53;12205422;19;20473;-78
2023/10/08 15:37:09;;;;;;;13.02;4.57;;;;;;;23.54;67.07;100531.72;12206081;19;20469;-78
2023/10/08 15:41:13;;;;;;;8.40;4.70;;;;;;;23.45;67.53;100505.50;12186626;19;20400;-78
2023/10/08 15:45:15;;;;;;;12.90;4.93;;;;;;;23.31;68.55;100513.16;12206824;19;20038;-79
2023/10/08 15:49:20;;;;;;;9.77;4.57;;;;;;;23.13;70.53;100486.88;12209474;19;20293;-78
2023/10/08 15:53:22;;;;;;;11.52;4.10;;;;;;;23.00;71.49;100499.00;12183364;19;20026;-78
2023/10/08 15:57:24;;;;;;;10.50;4.47;;;;;;;22.86;74.47;100518.69;12205372;19;20024;-78
2023/10/08 16:01:26;;;;;;;10.80;4.50;;;;;;;22.65;76.94;100491.03;12205955;19;20010;-78
2023/10/08 16:05:28;;;;;;;15.38;4.88;;;;;;;22.42;79.74;100504.16;12184769;19;20513;-79
2023/10/08 16:09:30;;;;;;;10.05;4.97;;;;;;;22.22;82.08;100516.63;12206770;19;20011;-78
2023/10/08 16:13:31;;;;;;;9.93;4.40;;;;;;;22.01;83.86;100527.41;12205893;19;20027;-79
2023/10/08 16:17:33;;;;;;;8.10;4.03;;;;;;;21.81;86.06;100520.16;12181917;19;20018;-79
2023/10/08 16:21:37;;;;;;;9.20;4.55;;;;;;;21.63;87.75;100532.28;12205955;19;20014;-79
2023/10/08 16:25:40;;;;;;;9.23;5.03;;;;;;;21.41;89.18;100537.69;12202514;19;20069;-79
2023/10/08 16:29:43;;;;;;;;;;;;;;;21.16;90.34;100546.16;12207614;19;20011;-78
2023/10/08 16:33:45;;;;;;;11.23;4.35;;;;;;;20.94;91.82;100543.13;12205518;19;19919;-80
2023/10/08 16:37:47;;;;;;;8.67;4.17;;;;;;;20.69;94.35;100555.47;12181337;19;20078;-79
2023/10/08 16:41:50;;;;;;;7.67;3.90;;;;;;;20.45;96.67;100561.06;12204448;19;20021;-78
2023/10/08 16:45:52;;;;;;;10.45;4.28;;;;;;;20.30;97.75;100558.44;12206120;19;20239;-79
2023/10/08 16:49:54;;;;;;;8.73;4.60;;;;;;;20.16;99.10;100561.91;12181363;19;20006;-78
2023/10/08 16:53:56;;;;;;;8.65;4.35;;;;;;;20.07;100.00;100560.91;12202287;19;20589;-79
2023/10/08 16:58:00;;;;;;;11.80;5.17;;;;;;;19.94;100.00;100565.22;12210067;19;20022;-79
2023/10/08 17:02:01;;;;;;;11.98;5.53;;;;;;;19.77;100.00;100564.81;12192500;19;20123;-79
2023/10/08 17:06:07;;;;;;;12.50;4.78;;;;;;;19.61;100.00;100574.44;12216313;19;20667;-79
2023/10/08 17:10:09;;;;;;;9.23;4.63;;;;;;;19.41;100.00;100567.88;12213242;19;20011;-79
2023/10/08 17:14:13;;;;;;;12.10;5.07;;;;;;;19.25;100.00;100558.75;12193274;19;20027;-78
2023/10/08 17:18:15;;;;;;;10.05;5.00;;;;;;;19.07;100.00;100554.69;12210118;19;20027;-79
2023/10/08 17:22:17;;;;;;;7.67;4.03;;;;;;;18.87;100.00;100544.47;12214061;19;20014;-79
2023/10/08 17:26:19;;;;;;;13.23;4.93;;;;;;;18.73;100.00;100545.34;12193344;19;20409;-79
2023/10/08 17:30:22;;;;;;;9.68;4.88;;;;;;;18.59;100.00;100540.38;12214950;19;20027;-79
2023/10/08 17:34:24;;;;;;;13.77;5.25;;;;;;;18.48;100.00;100533.16;12200828;19;20010;-79
2023/10/08 17:38:26;;;;;;;9.93;4.77;;;;;;;18.37;100.00;100525.94;12176467;19;20494;-79
2023/10/08 17:42:29;;;;;;;14.43;5.22;;;;;;;18.27;100.00;100521.25;12203694;19;20010;-78
2023/10/08 17:46:30;;;;;;;10.57;5.65;;;;;;;18.16;100.00;100512.06;12204233;19;20824;-80
2023/10/08 17:50:36;;;;;;;11.50;4.45;;;;;;;18.09;100.00;100514.31;12177768;19;20395;-79
2023/10/08 17:54:42;;;;;;;11.57;5.53;;;;;;;18.03;100.00;100518.25;12206947;19;20062;-78
2023/10/08 17:58:44;;;;;;;11.82;5.40;;;;;;;18.00;100.00;100504.88;12185307;19;20505;-78
2023/10/08 18:02:50;;;;;;;17.27;6.23;;;;;;;17.94;100.00;100508.78;12199161;19;21161;-78
2023/10/08 18:06:52;;;;;;;11.73;5.07;;;;;;;17.89;100.00;100506.81;12206539;19;20006;-79
2023/10/08 18:10:59;;;;;;;12.48;4.97;;;;;;;17.87;100.00;100502.66;12186033;19;20359;-78
2023/10/08 18:15:01;;;;;;;13.20;5.25;;;;;;;17.81;100.00;100506.56;12206646;19;20656;-78
2023/10/08 18:19:03;;;;;;;10.37;5.77;;;;;;;17.77;100.00;100500.69;12203986;19;20006;-78
2023/10/08 18:23:05;;;;;;;9.50;5.20;;;;;;;17.74;100.00;100501.25;12185559;19;20022;-79
2023/10/08 18:27:08;;;;;;;11.30;5.72;;;;;;;17.71;100.00;100502.66;12208273;19;20011;-79
2023/10/08 18:31:12;;;;;;;9.52;4.90;;;;;;;17.69;100.00;100504.88;12203123;19;20010;-78
2023/10/08 18:35:14;;;;;;;11.38;5.18;;;;;;;17.71;100.00;100497.06;12183411;19;20010;-79
2023/10/08 18:39:17;;;;;;;12.10;4.43;;;;;;;17.74;100.00;100501.25;12200237;19;20076;-79
2023/10/08 18:43:20;;;;;;;9.80;4.65;;;;;;;17.75;100.00;100506.53;12199844;19;20293;-79
2023/10/08 18:47:27;;;;;;;13.70;5.93;;;;;;;17.73;100.00;100514.34;12180658;19;20014;-79
2023/10/08 18:51:30;;;;;;;10.23;5.18;;;;;;;17.69;100.00;100504.88;12200340;19;20014;-78
2023/10/08 18:55:32;;;;;;;11.85;5.05;;;;;;;17.67;100.00;100500.72;12204628;19;20470;-79
2023/10/08 18:59:53;;;;;;;11.18;5.40;;;;;;;17.63;100.00;100494.00;12200840;19;20003;-79
2023/10/08 19:03:55;;;;;;;10.93;5.22;;;;;;;17.56;100.00;100482.31;12212548;19;20060;-79
2023/10/08 19:07:58;;;;;;;10.70;4.88;;;;;;;17.48;100.00;100480.94;12187056;19;20026;-79
2023/10/08 19:12:01;;;;;;;12.35;5.40;;;;;;;17.41;100.00;100485.94;12202647;19;20010;-78
2023/10/08 19:16:06;;;;;;;12.55;5.10;;;;;;;17.35;100.00;100476.75;12208234;19;20451;-78
2023/10/08 19:20:14;;;;;;;13.55;5.30;;;;;;;17.26;100.00;100478.44;12212460;19;20009;-78